sensor_id;sensor_type;location;lat;lon;timestamp;temperature;humidity
68235;DHT22;55052;52.056;5.296;2023-12-29T00:01:39;12.10;93.00
68235;DHT22;55052;52.056;5.296;2023-12-29T00:04:06;12.00;93.00
68235;DHT22;55052;52.056;5.296;2023-12-29T00:06:33;12.10;93.40
68235;DHT22;55052;52.056;5.296;2023-12-29T00:09:18;12.10;93.00
68235;DHT22;55052;52.056;5.296;2023-12-29T00:11:50;12.00;93.00
68235;DHT22;55052;52.056;5.296;2023-12-29T00:14:17;12.10;93.30
68235;DHT22;55052;52.056;5.296;2023-12-29T00:16:44;12.00;93.50
68235;DHT22;55052;52.056;5.296;2023-12-29T00:19:12;12.00;93.70
68235;DHT22;55052;52.056;5.296;2023-12-29T00:21:39;11.90;94.20
68235;DHT22;55052;52.056;5.296;2023-12-29T00:24:06;11.80;94.30
68235;DHT22;55052;52.056;5.296;2023-12-29T00:26:33;11.80;94.30
68235;DHT22;55052;52.056;5.296;2023-12-29T00:28:59;11.80;94.50
68235;DHT22;55052;52.056;5.296;2023-12-29T00:31:26;11.70;95.10
68235;DHT22;55052;52.056;5.296;2023-12-29T00:33:54;11.70;94.60
68235;DHT22;55052;52.056;5.296;2023-12-29T00:36:21;11.70;94.60
68235;DHT22;55052;52.056;5.296;2023-12-29T00:38:48;11.70;94.70
68235;DHT22;55052;52.056;5.296;2023-12-29T00:41:15;11.70;94.70
68235;DHT22;55052;52.056;5.296;2023-12-29T00:43:42;11.70;94.70
68235;DHT22;55052;52.056;5.296;2023-12-29T00:46:09;11.70;94.60
68235;DHT22;55052;52.056;5.296;2023-12-29T00:48:35;11.70;94.60
68235;DHT22;55052;52.056;5.296;2023-12-29T00:51:03;11.70;94.50
68235;DHT22;55052;52.056;5.296;2023-12-29T00:53:30;11.70;94.50
68235;DHT22;55052;52.056;5.296;2023-12-29T00:56:00;11.80;94.40
68235;DHT22;55052;52.056;5.296;2023-12-29T00:58:27;11.80;94.40
68235;DHT22;55052;52.056;5.296;2023-12-29T01:00:54;11.80;94.40
68235;DHT22;55052;52.056;5.296;2023-12-29T01:03:21;11.80;94.30
68235;DHT22;55052;52.056;5.296;2023-12-29T01:05:53;11.80;93.90
68235;DHT22;55052;52.056;5.296;2023-12-29T01:08:20;11.80;94.00
68235;DHT22;55052;52.056;5.296;2023-12-29T01:10:47;11.90;94.10
68235;DHT22;55052;52.056;5.296;2023-12-29T01:13:14;11.90;94.10
68235;DHT22;55052;52.056;5.296;2023-12-29T01:15:40;11.90;94.00
68235;DHT22;55052;52.056;5.296;2023-12-29T01:18:11;11.90;94.00
68235;DHT22;55052;52.056;5.296;2023-12-29T01:20:38;11.90;94.00
68235;DHT22;55052;52.056;5.296;2023-12-29T01:23:08;11.90;93.90
68235;DHT22;55052;52.056;5.296;2023-12-29T01:25:34;11.90;93.80
68235;DHT22;55052;52.056;5.296;2023-12-29T01:28:01;11.90;93.90
68235;DHT22;55052;52.056;5.296;2023-12-29T01:30:28;11.90;93.80
68235;DHT22;55052;52.056;5.296;2023-12-29T01:32:55;11.90;93.90
68235;DHT22;55052;52.056;5.296;2023-12-29T01:35:22;11.90;93.90
68235;DHT22;55052;52.056;5.296;2023-12-29T01:37:49;11.90;93.90
68235;DHT22;55052;52.056;5.296;2023-12-29T01:40:15;11.90;93.90
68235;DHT22;55052;52.056;5.296;2023-12-29T01:42:44;11.90;93.90
68235;DHT22;55052;52.056;5.296;2023-12-29T01:45:23;11.90;93.90
68235;DHT22;55052;52.056;5.296;2023-12-29T01:47:50;11.90;93.80
68235;DHT22;55052;52.056;5.296;2023-12-29T01:50:19;11.80;93.90
68235;DHT22;55052;52.056;5.296;2023-12-29T01:52:48;11.80;93.90
68235;DHT22;55052;52.056;5.296;2023-12-29T01:55:18;11.80;93.90
68235;DHT22;55052;52.056;5.296;2023-12-29T01:57:46;11.80;93.90
68235;DHT22;55052;52.056;5.296;2023-12-29T02:00:13;11.80;94.00
68235;DHT22;55052;52.056;5.296;2023-12-29T02:02:44;11.80;94.10
68235;DHT22;55052;52.056;5.296;2023-12-29T02:05:17;11.80;94.10
68235;DHT22;55052;52.056;5.296;2023-12-29T02:07:44;11.80;94.20
68235;DHT22;55052;52.056;5.296;2023-12-29T02:10:11;11.70;94.70
68235;DHT22;55052;52.056;5.296;2023-12-29T02:12:42;11.70;94.40
68235;DHT22;55052;52.056;5.296;2023-12-29T02:15:09;11.70;94.50
68235;DHT22;55052;52.056;5.296;2023-12-29T02:17:40;11.70;94.50
68235;DHT22;55052;52.056;5.296;2023-12-29T02:20:08;11.70;94.50
68235;DHT22;55052;52.056;5.296;2023-12-29T02:22:35;11.70;94.60
68235;DHT22;55052;52.056;5.296;2023-12-29T02:25:04;11.70;94.60
68235;DHT22;55052;52.056;5.296;2023-12-29T02:27:49;11.70;94.70
68235;DHT22;55052;52.056;5.296;2023-12-29T02:32:55;11.70;94.90
68235;DHT22;55052;52.056;5.296;2023-12-29T02:35:27;11.60;95.00
68235;DHT22;55052;52.056;5.296;2023-12-29T02:37:55;11.60;95.10
68235;DHT22;55052;52.056;5.296;2023-12-29T02:40:24;11.60;95.10
68235;DHT22;55052;52.056;5.296;2023-12-29T02:42:51;11.60;95.30
68235;DHT22;55052;52.056;5.296;2023-12-29T02:45:18;11.60;95.80
68235;DHT22;55052;52.056;5.296;2023-12-29T02:47:46;11.60;95.70
68235;DHT22;55052;52.056;5.296;2023-12-29T02:50:13;11.50;95.80
68235;DHT22;55052;52.056;5.296;2023-12-29T02:52:40;11.50;96.60
68235;DHT22;55052;52.056;5.296;2023-12-29T02:55:07;11.40;96.30
68235;DHT22;55052;52.056;5.296;2023-12-29T02:57:34;11.40;96.30
68235;DHT22;55052;52.056;5.296;2023-12-29T03:00:01;11.40;96.50
68235;DHT22;55052;52.056;5.296;2023-12-29T03:02:28;11.30;96.50
68235;DHT22;55052;52.056;5.296;2023-12-29T03:04:55;11.30;97.00
68235;DHT22;55052;52.056;5.296;2023-12-29T03:07:21;11.30;97.40
68235;DHT22;55052;52.056;5.296;2023-12-29T03:09:48;11.20;97.10
68235;DHT22;55052;52.056;5.296;2023-12-29T03:12:15;11.20;97.30
68235;DHT22;55052;52.056;5.296;2023-12-29T03:14:43;11.20;97.60
68235;DHT22;55052;52.056;5.296;2023-12-29T03:17:11;11.20;97.60
68235;DHT22;55052;52.056;5.296;2023-12-29T03:19:38;11.20;97.50
68235;DHT22;55052;52.056;5.296;2023-12-29T03:22:05;11.20;97.50
68235;DHT22;55052;52.056;5.296;2023-12-29T03:24:32;11.20;97.50
68235;DHT22;55052;52.056;5.296;2023-12-29T03:26:58;11.10;97.40
68235;DHT22;55052;52.056;5.296;2023-12-29T03:29:25;11.20;97.50
68235;DHT22;55052;52.056;5.296;2023-12-29T03:31:53;11.10;97.80
68235;DHT22;55052;52.056;5.296;2023-12-29T03:34:20;11.10;97.50
68235;DHT22;55052;52.056;5.296;2023-12-29T03:36:47;11.10;97.40
68235;DHT22;55052;52.056;5.296;2023-12-29T03:39:14;11.10;97.40
68235;DHT22;55052;52.056;5.296;2023-12-29T03:41:41;11.10;97.40
68235;DHT22;55052;52.056;5.296;2023-12-29T03:44:08;11.10;97.40
68235;DHT22;55052;52.056;5.296;2023-12-29T03:46:34;11.10;97.40
68235;DHT22;55052;52.056;5.296;2023-12-29T03:49:01;11.20;97.40
68235;DHT22;55052;52.056;5.296;2023-12-29T03:51:29;11.20;97.50
68235;DHT22;55052;52.056;5.296;2023-12-29T03:53:56;11.20;97.50
68235;DHT22;55052;52.056;5.296;2023-12-29T03:56:25;11.20;97.50
68235;DHT22;55052;52.056;5.296;2023-12-29T03:58:52;11.20;97.50
68235;DHT22;55052;52.056;5.296;2023-12-29T04:01:18;11.20;97.50
68235;DHT22;55052;52.056;5.296;2023-12-29T04:03:46;11.10;97.60
68235;DHT22;55052;52.056;5.296;2023-12-29T04:06:13;11.10;97.60
68235;DHT22;55052;52.056;5.296;2023-12-29T04:08:40;11.10;97.60
68235;DHT22;55052;52.056;5.296;2023-12-29T04:11:07;11.10;97.70
68235;DHT22;55052;52.056;5.296;2023-12-29T04:13:34;11.10;97.80
68235;DHT22;55052;52.056;5.296;2023-12-29T04:16:01;11.00;98.00
68235;DHT22;55052;52.056;5.296;2023-12-29T04:18:28;11.00;97.90
68235;DHT22;55052;52.056;5.296;2023-12-29T04:20:56;11.00;97.90
68235;DHT22;55052;52.056;5.296;2023-12-29T04:23:22;11.00;98.40
68235;DHT22;55052;52.056;5.296;2023-12-29T04:25:49;11.00;98.40
68235;DHT22;55052;52.056;5.296;2023-12-29T04:28:16;11.00;98.00
68235;DHT22;55052;52.056;5.296;2023-12-29T04:30:43;11.00;97.90
68235;DHT22;55052;52.056;5.296;2023-12-29T04:33:10;11.00;98.00
68235;DHT22;55052;52.056;5.296;2023-12-29T04:35:36;11.00;98.00
68235;DHT22;55052;52.056;5.296;2023-12-29T04:38:03;11.00;98.00
68235;DHT22;55052;52.056;5.296;2023-12-29T04:40:30;11.00;98.00
68235;DHT22;55052;52.056;5.296;2023-12-29T04:42:57;11.10;98.00
68235;DHT22;55052;52.056;5.296;2023-12-29T04:45:23;11.10;97.90
68235;DHT22;55052;52.056;5.296;2023-12-29T04:47:50;11.10;97.90
68235;DHT22;55052;52.056;5.296;2023-12-29T04:50:17;11.10;97.90
68235;DHT22;55052;52.056;5.296;2023-12-29T04:52:44;11.10;97.80
68235;DHT22;55052;52.056;5.296;2023-12-29T04:55:11;11.10;97.80
68235;DHT22;55052;52.056;5.296;2023-12-29T04:57:40;11.10;97.70
68235;DHT22;55052;52.056;5.296;2023-12-29T05:00:07;11.10;97.60
68235;DHT22;55052;52.056;5.296;2023-12-29T05:02:34;11.10;97.60
68235;DHT22;55052;52.056;5.296;2023-12-29T05:05:01;11.10;97.60
68235;DHT22;55052;52.056;5.296;2023-12-29T05:07:27;11.10;97.50
68235;DHT22;55052;52.056;5.296;2023-12-29T05:09:54;11.10;97.50
68235;DHT22;55052;52.056;5.296;2023-12-29T05:12:21;11.10;97.50
68235;DHT22;55052;52.056;5.296;2023-12-29T05:14:48;11.10;97.40
68235;DHT22;55052;52.056;5.296;2023-12-29T05:17:14;11.10;97.50
68235;DHT22;55052;52.056;5.296;2023-12-29T05:19:41;11.10;97.50
68235;DHT22;55052;52.056;5.296;2023-12-29T05:22:08;11.10;97.40
68235;DHT22;55052;52.056;5.296;2023-12-29T05:24:35;11.20;97.40
68235;DHT22;55052;52.056;5.296;2023-12-29T05:27:02;11.10;97.20
68235;DHT22;55052;52.056;5.296;2023-12-29T05:29:29;11.20;97.40
68235;DHT22;55052;52.056;5.296;2023-12-29T05:31:56;11.10;97.30
68235;DHT22;55052;52.056;5.296;2023-12-29T05:34:23;11.20;97.20
68235;DHT22;55052;52.056;5.296;2023-12-29T05:36:50;11.20;97.30
68235;DHT22;55052;52.056;5.296;2023-12-29T05:39:17;11.20;97.30
68235;DHT22;55052;52.056;5.296;2023-12-29T05:41:43;11.20;97.30
68235;DHT22;55052;52.056;5.296;2023-12-29T05:44:10;11.20;97.30
68235;DHT22;55052;52.056;5.296;2023-12-29T05:46:37;11.20;97.30
68235;DHT22;55052;52.056;5.296;2023-12-29T05:49:04;11.20;97.20
68235;DHT22;55052;52.056;5.296;2023-12-29T05:51:31;11.20;97.20
68235;DHT22;55052;52.056;5.296;2023-12-29T05:53:58;11.10;97.10
68235;DHT22;55052;52.056;5.296;2023-12-29T05:56:24;11.10;97.20
68235;DHT22;55052;52.056;5.296;2023-12-29T05:58:52;11.20;97.20
68235;DHT22;55052;52.056;5.296;2023-12-29T06:01:19;11.20;97.20
68235;DHT22;55052;52.056;5.296;2023-12-29T06:03:47;11.10;97.20
68235;DHT22;55052;52.056;5.296;2023-12-29T06:06:14;11.10;97.20
68235;DHT22;55052;52.056;5.296;2023-12-29T06:08:40;11.10;97.20
68235;DHT22;55052;52.056;5.296;2023-12-29T06:11:07;11.20;97.20
68235;DHT22;55052;52.056;5.296;2023-12-29T06:13:35;11.10;97.10
68235;DHT22;55052;52.056;5.296;2023-12-29T06:16:01;11.10;97.10
68235;DHT22;55052;52.056;5.296;2023-12-29T06:18:28;11.20;97.10
68235;DHT22;55052;52.056;5.296;2023-12-29T06:20:55;11.20;97.10
68235;DHT22;55052;52.056;5.296;2023-12-29T06:23:22;11.20;97.00
68235;DHT22;55052;52.056;5.296;2023-12-29T06:25:49;11.20;96.80
68235;DHT22;55052;52.056;5.296;2023-12-29T06:28:16;11.20;96.90
68235;DHT22;55052;52.056;5.296;2023-12-29T06:30:43;11.20;96.90
68235;DHT22;55052;52.056;5.296;2023-12-29T06:33:10;11.20;96.70
68235;DHT22;55052;52.056;5.296;2023-12-29T06:35:37;11.20;96.80
68235;DHT22;55052;52.056;5.296;2023-12-29T06:38:05;11.20;97.10
68235;DHT22;55052;52.056;5.296;2023-12-29T06:40:32;11.20;96.80
68235;DHT22;55052;52.056;5.296;2023-12-29T06:42:59;11.20;96.70
68235;DHT22;55052;52.056;5.296;2023-12-29T06:45:26;11.20;96.70
68235;DHT22;55052;52.056;5.296;2023-12-29T06:47:53;11.20;96.70
68235;DHT22;55052;52.056;5.296;2023-12-29T06:50:20;11.20;96.70
68235;DHT22;55052;52.056;5.296;2023-12-29T06:52:47;11.20;96.60
68235;DHT22;55052;52.056;5.296;2023-12-29T06:55:14;11.20;96.70
68235;DHT22;55052;52.056;5.296;2023-12-29T06:57:41;11.20;96.50
68235;DHT22;55052;52.056;5.296;2023-12-29T07:00:08;11.20;96.60
68235;DHT22;55052;52.056;5.296;2023-12-29T07:02:38;11.20;96.60
68235;DHT22;55052;52.056;5.296;2023-12-29T07:05:06;11.20;96.60
68235;DHT22;55052;52.056;5.296;2023-12-29T07:07:35;11.30;96.70
68235;DHT22;55052;52.056;5.296;2023-12-29T07:10:03;11.30;96.70
68235;DHT22;55052;52.056;5.296;2023-12-29T07:12:30;11.30;96.70
68235;DHT22;55052;52.056;5.296;2023-12-29T07:14:57;11.20;96.70
68235;DHT22;55052;52.056;5.296;2023-12-29T07:17:24;11.30;96.80
68235;DHT22;55052;52.056;5.296;2023-12-29T07:19:51;11.20;96.70
68235;DHT22;55052;52.056;5.296;2023-12-29T07:22:17;11.20;96.70
68235;DHT22;55052;52.056;5.296;2023-12-29T07:24:44;11.20;96.70
68235;DHT22;55052;52.056;5.296;2023-12-29T07:27:11;11.20;96.80
68235;DHT22;55052;52.056;5.296;2023-12-29T07:29:38;11.20;96.80
68235;DHT22;55052;52.056;5.296;2023-12-29T07:32:05;11.20;96.90
68235;DHT22;55052;52.056;5.296;2023-12-29T07:34:32;11.20;96.90
68235;DHT22;55052;52.056;5.296;2023-12-29T07:36:59;11.20;97.10
68235;DHT22;55052;52.056;5.296;2023-12-29T07:39:26;11.10;97.40
68235;DHT22;55052;52.056;5.296;2023-12-29T07:41:53;11.20;97.20
68235;DHT22;55052;52.056;5.296;2023-12-29T07:44:20;11.20;97.40
68235;DHT22;55052;52.056;5.296;2023-12-29T07:46:47;11.10;97.90
68235;DHT22;55052;52.056;5.296;2023-12-29T07:49:14;11.20;97.90
68235;DHT22;55052;52.056;5.296;2023-12-29T07:51:41;11.20;97.60
68235;DHT22;55052;52.056;5.296;2023-12-29T07:54:09;11.10;97.60
68235;DHT22;55052;52.056;5.296;2023-12-29T07:56:36;11.10;97.70
68235;DHT22;55052;52.056;5.296;2023-12-29T07:59:04;11.10;97.80
68235;DHT22;55052;52.056;5.296;2023-12-29T08:01:31;11.10;98.00
68235;DHT22;55052;52.056;5.296;2023-12-29T08:03:58;11.10;98.10
68235;DHT22;55052;52.056;5.296;2023-12-29T08:06:25;11.10;98.10
68235;DHT22;55052;52.056;5.296;2023-12-29T08:08:54;11.10;98.10
68235;DHT22;55052;52.056;5.296;2023-12-29T08:11:21;11.10;98.20
68235;DHT22;55052;52.056;5.296;2023-12-29T08:13:48;11.10;98.10
68235;DHT22;55052;52.056;5.296;2023-12-29T08:16:16;11.20;98.10
68235;DHT22;55052;52.056;5.296;2023-12-29T08:18:48;11.20;98.20
68235;DHT22;55052;52.056;5.296;2023-12-29T08:21:17;11.20;98.20
68235;DHT22;55052;52.056;5.296;2023-12-29T08:23:48;11.20;98.60
68235;DHT22;55052;52.056;5.296;2023-12-29T08:26:15;11.20;98.60
68235;DHT22;55052;52.056;5.296;2023-12-29T08:28:42;11.20;98.20
68235;DHT22;55052;52.056;5.296;2023-12-29T08:31:09;11.20;98.20
68235;DHT22;55052;52.056;5.296;2023-12-29T08:33:36;11.20;98.20
68235;DHT22;55052;52.056;5.296;2023-12-29T08:36:03;11.30;98.20
68235;DHT22;55052;52.056;5.296;2023-12-29T08:38:31;11.30;98.20
68235;DHT22;55052;52.056;5.296;2023-12-29T08:40:59;11.30;98.20
68235;DHT22;55052;52.056;5.296;2023-12-29T08:43:26;11.30;98.10
68235;DHT22;55052;52.056;5.296;2023-12-29T08:45:53;11.30;98.10
68235;DHT22;55052;52.056;5.296;2023-12-29T08:48:20;11.30;98.20
68235;DHT22;55052;52.056;5.296;2023-12-29T08:50:47;11.30;98.30
68235;DHT22;55052;52.056;5.296;2023-12-29T08:53:15;11.30;98.30
68235;DHT22;55052;52.056;5.296;2023-12-29T08:55:42;11.20;98.30
68235;DHT22;55052;52.056;5.296;2023-12-29T08:58:09;11.30;98.40
68235;DHT22;55052;52.056;5.296;2023-12-29T09:00:36;11.20;98.40
68235;DHT22;55052;52.056;5.296;2023-12-29T09:03:03;11.20;98.50
68235;DHT22;55052;52.056;5.296;2023-12-29T09:05:29;11.30;98.50
68235;DHT22;55052;52.056;5.296;2023-12-29T09:07:56;11.20;98.50
68235;DHT22;55052;52.056;5.296;2023-12-29T09:10:23;11.20;98.40
68235;DHT22;55052;52.056;5.296;2023-12-29T09:12:50;11.20;98.40
68235;DHT22;55052;52.056;5.296;2023-12-29T09:15:17;11.20;98.50
68235;DHT22;55052;52.056;5.296;2023-12-29T09:17:44;11.30;98.50
68235;DHT22;55052;52.056;5.296;2023-12-29T09:20:11;11.20;98.50
68235;DHT22;55052;52.056;5.296;2023-12-29T09:22:38;11.30;98.50
68235;DHT22;55052;52.056;5.296;2023-12-29T09:25:05;11.30;98.50
68235;DHT22;55052;52.056;5.296;2023-12-29T09:27:32;11.30;98.50
68235;DHT22;55052;52.056;5.296;2023-12-29T09:29:59;11.30;98.50
68235;DHT22;55052;52.056;5.296;2023-12-29T09:32:26;11.40;98.50
68235;DHT22;55052;52.056;5.296;2023-12-29T09:34:52;11.40;98.80
68235;DHT22;55052;52.056;5.296;2023-12-29T09:37:19;11.40;98.30
68235;DHT22;55052;52.056;5.296;2023-12-29T09:39:46;11.50;98.50
68235;DHT22;55052;52.056;5.296;2023-12-29T09:42:21;11.50;98.30
68235;DHT22;55052;52.056;5.296;2023-12-29T09:44:52;11.50;98.30
68235;DHT22;55052;52.056;5.296;2023-12-29T09:47:23;11.50;98.20
68235;DHT22;55052;52.056;5.296;2023-12-29T09:49:54;11.50;98.20
68235;DHT22;55052;52.056;5.296;2023-12-29T09:52:21;11.60;98.30
68235;DHT22;55052;52.056;5.296;2023-12-29T09:54:51;11.60;98.20
68235;DHT22;55052;52.056;5.296;2023-12-29T09:57:18;11.60;98.20
68235;DHT22;55052;52.056;5.296;2023-12-29T09:59:48;11.70;98.10
68235;DHT22;55052;52.056;5.296;2023-12-29T10:02:20;11.70;98.10
68235;DHT22;55052;52.056;5.296;2023-12-29T10:04:49;11.70;98.00
68235;DHT22;55052;52.056;5.296;2023-12-29T10:07:26;11.70;97.90
68235;DHT22;55052;52.056;5.296;2023-12-29T10:09:55;11.70;97.80
68235;DHT22;55052;52.056;5.296;2023-12-29T10:12:24;11.80;97.90
68235;DHT22;55052;52.056;5.296;2023-12-29T10:18:17;11.80;97.80
68235;DHT22;55052;52.056;5.296;2023-12-29T10:21:02;11.80;97.60
68235;DHT22;55052;52.056;5.296;2023-12-29T10:26:15;11.90;97.70
68235;DHT22;55052;52.056;5.296;2023-12-29T10:28:43;11.90;97.60
68235;DHT22;55052;52.056;5.296;2023-12-29T10:31:10;11.90;97.40
68235;DHT22;55052;52.056;5.296;2023-12-29T10:33:41;11.90;97.50
68235;DHT22;55052;52.056;5.296;2023-12-29T10:36:08;12.00;97.40
68235;DHT22;55052;52.056;5.296;2023-12-29T10:38:39;12.00;97.30
68235;DHT22;55052;52.056;5.296;2023-12-29T10:41:14;12.00;97.40
68235;DHT22;55052;52.056;5.296;2023-12-29T10:43:42;12.00;96.70
68235;DHT22;55052;52.056;5.296;2023-12-29T10:46:10;12.00;96.90
68235;DHT22;55052;52.056;5.296;2023-12-29T10:48:38;12.00;96.60
68235;DHT22;55052;52.056;5.296;2023-12-29T10:51:06;12.00;97.10
68235;DHT22;55052;52.056;5.296;2023-12-29T10:53:34;12.00;97.00
68235;DHT22;55052;52.056;5.296;2023-12-29T10:56:19;12.10;97.20
68235;DHT22;55052;52.056;5.296;2023-12-29T10:59:06;12.10;96.90
68235;DHT22;55052;52.056;5.296;2023-12-29T11:01:35;12.10;96.70
68235;DHT22;55052;52.056;5.296;2023-12-29T11:04:04;12.10;96.80
68235;DHT22;55052;52.056;5.296;2023-12-29T11:06:43;12.10;96.70
68235;DHT22;55052;52.056;5.296;2023-12-29T11:09:13;12.10;96.70
68235;DHT22;55052;52.056;5.296;2023-12-29T11:11:41;12.10;96.20
68235;DHT22;55052;52.056;5.296;2023-12-29T11:14:10;12.10;96.60
68235;DHT22;55052;52.056;5.296;2023-12-29T11:16:39;12.10;96.50
68235;DHT22;55052;52.056;5.296;2023-12-29T11:19:08;12.10;96.50
68235;DHT22;55052;52.056;5.296;2023-12-29T11:21:37;12.20;96.50
68235;DHT22;55052;52.056;5.296;2023-12-29T11:24:05;12.20;96.50
68235;DHT22;55052;52.056;5.296;2023-12-29T11:26:32;12.20;96.30
68235;DHT22;55052;52.056;5.296;2023-12-29T11:29:01;12.20;96.40
68235;DHT22;55052;52.056;5.296;2023-12-29T11:31:28;12.20;96.20
68235;DHT22;55052;52.056;5.296;2023-12-29T11:34:05;12.20;95.80
68235;DHT22;55052;52.056;5.296;2023-12-29T11:36:40;12.20;96.20
68235;DHT22;55052;52.056;5.296;2023-12-29T11:42:04;12.30;96.10
68235;DHT22;55052;52.056;5.296;2023-12-29T11:44:32;12.30;96.00
68235;DHT22;55052;52.056;5.296;2023-12-29T11:47:00;12.30;95.80
68235;DHT22;55052;52.056;5.296;2023-12-29T11:49:58;12.30;95.70
68235;DHT22;55052;52.056;5.296;2023-12-29T11:52:38;12.30;95.70
68235;DHT22;55052;52.056;5.296;2023-12-29T11:55:13;12.40;95.70
68235;DHT22;55052;52.056;5.296;2023-12-29T11:57:41;12.40;95.50
68235;DHT22;55052;52.056;5.296;2023-12-29T12:00:09;12.40;95.20
68235;DHT22;55052;52.056;5.296;2023-12-29T12:02:36;12.30;95.30
68235;DHT22;55052;52.056;5.296;2023-12-29T12:05:03;12.30;95.00
68235;DHT22;55052;52.056;5.296;2023-12-29T12:12:59;12.40;95.20
68235;DHT22;55052;52.056;5.296;2023-12-29T12:20:26;12.40;95.20
68235;DHT22;55052;52.056;5.296;2023-12-29T12:22:59;12.40;95.30
68235;DHT22;55052;52.056;5.296;2023-12-29T12:25:28;12.40;95.20
68235;DHT22;55052;52.056;5.296;2023-12-29T12:27:56;12.40;95.30
68235;DHT22;55052;52.056;5.296;2023-12-29T12:30:23;12.40;95.20
68235;DHT22;55052;52.056;5.296;2023-12-29T12:33:03;12.40;95.10
68235;DHT22;55052;52.056;5.296;2023-12-29T12:35:32;12.40;94.90
68235;DHT22;55052;52.056;5.296;2023-12-29T12:38:10;12.40;95.20
68235;DHT22;55052;52.056;5.296;2023-12-29T12:40:37;12.50;94.90
68235;DHT22;55052;52.056;5.296;2023-12-29T12:43:05;12.40;95.10
68235;DHT22;55052;52.056;5.296;2023-12-29T12:45:53;12.40;95.00
68235;DHT22;55052;52.056;5.296;2023-12-29T12:48:28;12.40;94.90
68235;DHT22;55052;52.056;5.296;2023-12-29T12:50:56;12.50;95.00
68235;DHT22;55052;52.056;5.296;2023-12-29T12:53:26;12.50;95.10
68235;DHT22;55052;52.056;5.296;2023-12-29T12:55:55;12.50;95.10
68235;DHT22;55052;52.056;5.296;2023-12-29T12:58:22;12.50;95.00
68235;DHT22;55052;52.056;5.296;2023-12-29T13:00:50;12.50;95.10
68235;DHT22;55052;52.056;5.296;2023-12-29T13:03:21;12.50;94.90
68235;DHT22;55052;52.056;5.296;2023-12-29T13:05:48;12.60;95.10
68235;DHT22;55052;52.056;5.296;2023-12-29T13:08:16;12.60;95.10
68235;DHT22;55052;52.056;5.296;2023-12-29T13:10:59;12.60;95.00
68235;DHT22;55052;52.056;5.296;2023-12-29T13:13:41;12.60;95.00
68235;DHT22;55052;52.056;5.296;2023-12-29T13:16:11;12.60;94.90
68235;DHT22;55052;52.056;5.296;2023-12-29T13:18:40;12.60;94.80
68235;DHT22;55052;52.056;5.296;2023-12-29T13:21:08;12.60;94.90
68235;DHT22;55052;52.056;5.296;2023-12-29T13:23:36;12.60;94.90
68235;DHT22;55052;52.056;5.296;2023-12-29T13:26:06;12.60;94.80
68235;DHT22;55052;52.056;5.296;2023-12-29T13:28:35;12.60;94.90
68235;DHT22;55052;52.056;5.296;2023-12-29T13:31:07;12.60;94.90
68235;DHT22;55052;52.056;5.296;2023-12-29T13:33:51;12.50;95.00
68235;DHT22;55052;52.056;5.296;2023-12-29T13:39:03;12.50;95.00
68235;DHT22;55052;52.056;5.296;2023-12-29T13:41:34;12.50;95.10
68235;DHT22;55052;52.056;5.296;2023-12-29T13:44:01;12.50;95.10
68235;DHT22;55052;52.056;5.296;2023-12-29T13:46:30;12.50;95.20
68235;DHT22;55052;52.056;5.296;2023-12-29T13:48:58;12.50;95.20
68235;DHT22;55052;52.056;5.296;2023-12-29T13:51:25;12.50;95.20
68235;DHT22;55052;52.056;5.296;2023-12-29T13:54:02;12.50;95.10
68235;DHT22;55052;52.056;5.296;2023-12-29T13:56:29;12.50;95.20
68235;DHT22;55052;52.056;5.296;2023-12-29T13:58:56;12.50;95.20
68235;DHT22;55052;52.056;5.296;2023-12-29T14:01:23;12.50;95.20
68235;DHT22;55052;52.056;5.296;2023-12-29T14:04:00;12.50;95.30
68235;DHT22;55052;52.056;5.296;2023-12-29T14:06:37;12.50;95.10
68235;DHT22;55052;52.056;5.296;2023-12-29T14:09:05;12.50;95.20
68235;DHT22;55052;52.056;5.296;2023-12-29T14:11:33;12.50;95.30
68235;DHT22;55052;52.056;5.296;2023-12-29T14:14:00;12.50;95.20
68235;DHT22;55052;52.056;5.296;2023-12-29T14:16:27;12.50;95.20
68235;DHT22;55052;52.056;5.296;2023-12-29T14:18:55;12.50;95.30
68235;DHT22;55052;52.056;5.296;2023-12-29T14:21:30;12.40;95.00
68235;DHT22;55052;52.056;5.296;2023-12-29T14:26:27;12.40;95.20
68235;DHT22;55052;52.056;5.296;2023-12-29T14:29:04;12.40;95.00
68235;DHT22;55052;52.056;5.296;2023-12-29T14:31:34;12.40;95.30
68235;DHT22;55052;52.056;5.296;2023-12-29T14:34:02;12.40;95.20
68235;DHT22;55052;52.056;5.296;2023-12-29T14:36:31;12.30;95.30
68235;DHT22;55052;52.056;5.296;2023-12-29T14:38:58;12.30;95.30
68235;DHT22;55052;52.056;5.296;2023-12-29T14:41:25;12.30;95.30
68235;DHT22;55052;52.056;5.296;2023-12-29T14:43:52;12.30;95.30
68235;DHT22;55052;52.056;5.296;2023-12-29T14:46:19;12.30;95.40
68235;DHT22;55052;52.056;5.296;2023-12-29T14:48:48;12.30;95.40
68235;DHT22;55052;52.056;5.296;2023-12-29T14:51:15;12.30;95.40
68235;DHT22;55052;52.056;5.296;2023-12-29T14:53:47;12.30;95.40
68235;DHT22;55052;52.056;5.296;2023-12-29T14:56:15;12.30;95.50
68235;DHT22;55052;52.056;5.296;2023-12-29T14:58:42;12.20;95.90
68235;DHT22;55052;52.056;5.296;2023-12-29T15:01:10;12.30;95.60
68235;DHT22;55052;52.056;5.296;2023-12-29T15:03:37;12.20;95.80
68235;DHT22;55052;52.056;5.296;2023-12-29T15:06:04;12.20;96.00
68235;DHT22;55052;52.056;5.296;2023-12-29T15:08:31;12.10;96.60
68235;DHT22;55052;52.056;5.296;2023-12-29T15:11:05;11.90;96.50
68235;DHT22;55052;52.056;5.296;2023-12-29T15:13:32;11.70;96.10
68235;DHT22;55052;52.056;5.296;2023-12-29T15:16:00;11.50;96.10
68235;DHT22;55052;52.056;5.296;2023-12-29T15:18:28;11.50;96.20
68235;DHT22;55052;52.056;5.296;2023-12-29T15:20:58;11.30;96.20
68235;DHT22;55052;52.056;5.296;2023-12-29T15:23:25;11.30;96.50
68235;DHT22;55052;52.056;5.296;2023-12-29T15:25:54;11.10;96.50
68235;DHT22;55052;52.056;5.296;2023-12-29T15:28:21;11.10;96.50
68235;DHT22;55052;52.056;5.296;2023-12-29T15:30:49;11.00;96.80
68235;DHT22;55052;52.056;5.296;2023-12-29T15:33:17;11.00;96.90
68235;DHT22;55052;52.056;5.296;2023-12-29T15:35:44;11.00;97.10
68235;DHT22;55052;52.056;5.296;2023-12-29T15:38:11;11.00;97.10
68235;DHT22;55052;52.056;5.296;2023-12-29T15:40:37;11.00;97.20
68235;DHT22;55052;52.056;5.296;2023-12-29T15:43:04;11.00;97.60
68235;DHT22;55052;52.056;5.296;2023-12-29T15:45:31;11.00;97.40
68235;DHT22;55052;52.056;5.296;2023-12-29T15:47:58;11.00;97.40
68235;DHT22;55052;52.056;5.296;2023-12-29T15:50:26;11.00;97.50
68235;DHT22;55052;52.056;5.296;2023-12-29T15:52:53;10.90;97.50
68235;DHT22;55052;52.056;5.296;2023-12-29T15:55:20;10.90;97.60
68235;DHT22;55052;52.056;5.296;2023-12-29T15:57:47;11.00;97.80
68235;DHT22;55052;52.056;5.296;2023-12-29T16:00:14;11.00;97.70
68235;DHT22;55052;52.056;5.296;2023-12-29T16:02:41;11.00;97.80
68235;DHT22;55052;52.056;5.296;2023-12-29T16:05:08;11.00;97.80